Current Weather

Dallas-Fort Worth Intl

Dallas-Fort Worth, Texas (KDFW)

Report from: Tuesday, February 27, 2024 3:53 AM CST
Current time: Tuesday, February 27, 2024 4:26 AM CST

Nearby weather – Weather history – Daily summaries
Weather forecast

Temperature20.6°C (69.1°F)
Dew point17.8°C (64.0°F)
Winds 12 kts (6.2 m/s, 13.8 mph) South (190°)
Visibility10 mi. (16.1 km)
Clouds Ceiling: Overcast 25,000 ft. (7,620 m)
Altimeter29.66 in.Hg (1004 mB)
Relative humidity84 %
Density altitude1,270 ft. (387 m)
Sea-level pressure100.3 kPa (1003 mB, 29.63 in.Hg)
Remarks Automated weather observing station with precipitation discriminator
Flight conditions Visual Meteorological Conditions
Raw dataKDFW 270953Z 19012KT 10SM OVC250 21/18 A2966 RMK AO2 SLP033 T02060178
An error has occurred. This application may no longer respond until reloaded. Reload 🗙